AFX79C ENZV-ENGM
Flight info
| Callsign | AFX79C |
|---|---|
| Flight time | N/A |
| Altitude | 29000 |
| Route | UPLEV DCT OSKOM DCT RIPAM |
| Aircraft | A306/H-SDE3FGHIRWY/LB1 |
Departure
| Time | 2026-04-25 07:30 |
|---|---|
| Airport | Stavanger Airport, Sola (ENZV) |
Arrival
| Time | N/A |
|---|---|
| Airport | Oslo-Gardermoen International Airport (ENGM) |
| Time | Latitude | Longitude | Altitude | Speed | Heading |
|---|---|---|---|---|---|
| 2026-04-25 07:11 | 58.88195 | 5.63118 | 31 ft | 0 kts | 283° |
| 2026-04-25 07:18 | 58.88189 | 5.63157 | 29 ft | 4 kts | 285° |
| 2026-04-25 07:18 | 58.88183 | 5.63205 | 31 ft | 2 kts | 283° |
| 2026-04-25 07:19 | 58.88175 | 5.63247 | 34 ft | 4 kts | 310° |
| 2026-04-25 07:19 | 58.88155 | 5.63272 | 32 ft | 5 kts | 355° |
| 2026-04-25 07:19 | 58.88129 | 5.63266 | 32 ft | 4 kts | 25° |
| 2026-04-25 07:19 | 58.88123 | 5.63261 | 32 ft | 1 kts | 28° |
| 2026-04-25 07:20 | 58.88123 | 5.63260 | 32 ft | 0 kts | 28° |
| 2026-04-25 07:22 | 58.88148 | 5.63278 | 35 ft | 4 kts | 16° |
| 2026-04-25 07:23 | 58.88193 | 5.63291 | 34 ft | 12 kts | 6° |
| 2026-04-25 07:23 | 58.88274 | 5.63298 | 36 ft | 11 kts | 356° |
| 2026-04-25 07:23 | 58.88304 | 5.63301 | 37 ft | 3 kts | 59° |
| 2026-04-25 07:23 | 58.88276 | 5.63380 | 38 ft | 16 kts | 133° |
| 2026-04-25 07:24 | 58.88139 | 5.63437 | 36 ft | 22 kts | 179° |
| 2026-04-25 07:24 | 58.87998 | 5.63407 | 35 ft | 18 kts | 200° |
| 2026-04-25 07:24 | 58.87950 | 5.63373 | 38 ft | 0 kts | 202° |
| 2026-04-25 07:27 | 58.87944 | 5.63368 | 38 ft | 5 kts | 202° |
| 2026-04-25 07:28 | 58.87854 | 5.63304 | 37 ft | 23 kts | 192° |
| 2026-04-25 07:28 | 58.87663 | 5.63293 | 37 ft | 28 kts | 179° |
| 2026-04-25 07:28 | 58.87467 | 5.63299 | 37 ft | 28 kts | 179° |
| 2026-04-25 07:28 | 58.87278 | 5.63306 | 37 ft | 27 kts | 178° |
| 2026-04-25 07:29 | 58.87097 | 5.63318 | 38 ft | 26 kts | 178° |
| 2026-04-25 07:29 | 58.87012 | 5.63567 | 40 ft | 31 kts | 70° |
| 2026-04-25 07:29 | 58.87139 | 5.63798 | 41 ft | 24 kts | 358° |
| 2026-04-25 07:29 | 58.87478 | 5.63786 | 40 ft | 84 kts | 358° |
| 2026-04-25 07:30 | 58.88294 | 5.63760 | 106 ft | 145 kts | 354° |
| 2026-04-25 07:30 | 58.89406 | 5.63766 | 687 ft | 174 kts | 356° |
| 2026-04-25 07:30 | 58.90616 | 5.63731 | 1898 ft | 173 kts | 354° |
| 2026-04-25 07:30 | 58.91856 | 5.63674 | 2950 ft | 182 kts | 355° |
| 2026-04-25 07:31 | 58.93130 | 5.63625 | 4063 ft | 184 kts | 355° |
| 2026-04-25 07:31 | 58.94449 | 5.63577 | 4873 ft | 200 kts | 355° |
| 2026-04-25 07:31 | 58.95924 | 5.63522 | 5306 ft | 222 kts | 356° |
| 2026-04-25 07:31 | 58.97515 | 5.63471 | 5925 ft | 234 kts | 356° |
| 2026-04-25 07:32 | 58.99162 | 5.63424 | 6899 ft | 238 kts | 355° |
| 2026-04-25 07:32 | 59.00817 | 5.63379 | 8061 ft | 238 kts | 354° |
| 2026-04-25 07:32 | 59.02472 | 5.63334 | 9235 ft | 238 kts | 352° |
| 2026-04-25 07:32 | 59.04142 | 5.63509 | 10325 ft | 246 kts | 1° |
| 2026-04-25 07:33 | 59.05800 | 5.64740 | 11272 ft | 269 kts | 21° |
| 2026-04-25 07:33 | 59.07151 | 5.67444 | 12140 ft | 302 kts | 48° |
| 2026-04-25 07:33 | 59.07785 | 5.71601 | 13019 ft | 336 kts | 78° |
| 2026-04-25 07:33 | 59.07386 | 5.76159 | 13825 ft | 361 kts | 109° |
| 2026-04-25 07:34 | 59.05943 | 5.80215 | 14509 ft | 373 kts | 137° |
| 2026-04-25 07:34 | 59.03727 | 5.82931 | 14835 ft | 384 kts | 165° |
| 2026-04-25 07:34 | 59.01102 | 5.83758 | 15083 ft | 384 kts | 191° |
| 2026-04-25 07:34 | 58.98391 | 5.83417 | 15361 ft | 403 kts | 189° |
| 2026-04-25 07:35 | 58.95509 | 5.84389 | 15589 ft | 439 kts | 166° |
| 2026-04-25 07:35 | 58.92775 | 5.87331 | 15949 ft | 461 kts | 144° |
| 2026-04-25 07:35 | 58.90575 | 5.91914 | 16478 ft | 470 kts | 123° |
| 2026-04-25 07:35 | 58.89171 | 5.97585 | 17044 ft | 468 kts | 103° |
| 2026-04-25 07:36 | 58.88708 | 6.03728 | 17698 ft | 458 kts | 82° |
| 2026-04-25 07:36 | 58.89188 | 6.09694 | 18309 ft | 444 kts | 63° |
| 2026-04-25 07:36 | 58.90231 | 6.15299 | 18748 ft | 448 kts | 60° |
| 2026-04-25 07:36 | 58.91119 | 6.21158 | 19272 ft | 459 kts | 67° |
| 2026-04-25 07:37 | 58.91798 | 6.27256 | 19744 ft | 466 kts | 68° |
| 2026-04-25 07:37 | 58.92689 | 6.33235 | 20229 ft | 459 kts | 60° |
| 2026-04-25 07:37 | 58.94062 | 6.38735 | 20580 ft | 450 kts | 49° |
| 2026-04-25 07:37 | 58.95756 | 6.43814 | 21031 ft | 449 kts | 46° |
| 2026-04-25 07:38 | 58.97500 | 6.48856 | 21516 ft | 453 kts | 45° |
| 2026-04-25 07:38 | 58.99254 | 6.53968 | 21973 ft | 457 kts | 46° |
| 2026-04-25 07:38 | 59.01008 | 6.59138 | 22427 ft | 461 kts | 46° |
| 2026-04-25 07:38 | 59.02767 | 6.64363 | 22840 ft | 465 kts | 46° |
| 2026-04-25 07:39 | 59.04537 | 6.69653 | 23260 ft | 469 kts | 47° |
| 2026-04-25 07:39 | 59.06318 | 6.74981 | 23646 ft | 472 kts | 47° |
| 2026-04-25 07:39 | 59.08098 | 6.80370 | 23939 ft | 477 kts | 49° |
| 2026-04-25 07:39 | 59.09638 | 6.86178 | 24328 ft | 490 kts | 58° |
| 2026-04-25 07:40 | 59.10689 | 6.92572 | 24753 ft | 502 kts | 68° |
| 2026-04-25 07:40 | 59.11446 | 6.99229 | 25112 ft | 507 kts | 71° |
| 2026-04-25 07:40 | 59.12076 | 7.05999 | 25516 ft | 510 kts | 73° |
| 2026-04-25 07:40 | 59.12648 | 7.12857 | 25922 ft | 515 kts | 72° |
| 2026-04-25 07:41 | 59.13200 | 7.19771 | 26161 ft | 518 kts | 72° |
| 2026-04-25 07:41 | 59.13762 | 7.26709 | 26480 ft | 520 kts | 72° |
| 2026-04-25 07:41 | 59.14336 | 7.33676 | 26809 ft | 521 kts | 72° |
| 2026-04-25 07:41 | 59.14923 | 7.40648 | 27142 ft | 522 kts | 72° |
| 2026-04-25 07:42 | 59.15516 | 7.47627 | 27426 ft | 524 kts | 72° |
| 2026-04-25 07:42 | 59.16091 | 7.54648 | 27639 ft | 525 kts | 72° |
| 2026-04-25 07:42 | 59.16668 | 7.61678 | 27911 ft | 526 kts | 72° |
| 2026-04-25 07:42 | 59.17265 | 7.68721 | 28277 ft | 526 kts | 71° |
| 2026-04-25 07:43 | 59.17861 | 7.75746 | 28598 ft | 528 kts | 72° |
| 2026-04-25 07:43 | 59.18463 | 7.82843 | 28705 ft | 533 kts | 72° |
| 2026-04-25 07:43 | 59.19056 | 7.89975 | 28825 ft | 528 kts | 72° |
| 2026-04-25 07:43 | 59.19606 | 7.96887 | 28846 ft | 508 kts | 72° |
| 2026-04-25 07:44 | 59.20720 | 8.10682 | 28823 ft | 522 kts | 72° |
| 2026-04-25 07:44 | 59.21856 | 8.24786 | 28810 ft | 528 kts | 72° |
| 2026-04-25 07:45 | 59.22964 | 8.38981 | 28919 ft | 529 kts | 73° |
| 2026-04-25 07:45 | 59.23513 | 8.46094 | 28810 ft | 532 kts | 73° |
| 2026-04-25 07:45 | 59.24062 | 8.53270 | 28805 ft | 535 kts | 73° |
| 2026-04-25 07:46 | 59.25150 | 8.67655 | 28789 ft | 532 kts | 73° |
| 2026-04-25 07:46 | 59.25668 | 8.74673 | 28538 ft | 513 kts | 73° |
| 2026-04-25 07:46 | 59.26158 | 8.81408 | 27835 ft | 493 kts | 73° |
| 2026-04-25 07:47 | 59.26650 | 8.88046 | 26821 ft | 492 kts | 72° |
| 2026-04-25 07:47 | 59.27136 | 8.94601 | 26176 ft | 482 kts | 72° |
| 2026-04-25 07:47 | 59.27606 | 9.01013 | 25620 ft | 472 kts | 72° |
| 2026-04-25 07:47 | 59.28062 | 9.07316 | 25090 ft | 465 kts | 73° |
| 2026-04-25 07:48 | 59.28508 | 9.13532 | 24554 ft | 459 kts | 73° |
| 2026-04-25 07:48 | 59.28949 | 9.19690 | 23914 ft | 454 kts | 73° |
| 2026-04-25 07:48 | 59.29382 | 9.25769 | 23341 ft | 448 kts | 74° |
| 2026-04-25 07:48 | 59.29811 | 9.31803 | 22233 ft | 450 kts | 74° |
| 2026-04-25 07:49 | 59.30244 | 9.37900 | 21204 ft | 452 kts | 74° |
| 2026-04-25 07:49 | 59.30660 | 9.43866 | 20465 ft | 446 kts | 75° |
| 2026-04-25 07:49 | 59.31073 | 9.49830 | 19760 ft | 440 kts | 75° |
| 2026-04-25 07:49 | 59.31476 | 9.55730 | 19194 ft | 435 kts | 75° |
| 2026-04-25 07:50 | 59.31872 | 9.61566 | 18677 ft | 430 kts | 75° |
| 2026-04-25 07:50 | 59.32263 | 9.67331 | 18153 ft | 424 kts | 75° |
| 2026-04-25 07:50 | 59.32905 | 9.72860 | 17589 ft | 407 kts | 61° |
| 2026-04-25 07:50 | 59.34327 | 9.77430 | 16925 ft | 382 kts | 39° |
| 2026-04-25 07:51 | 59.36253 | 9.80823 | 16329 ft | 367 kts | 29° |
| 2026-04-25 07:51 | 59.38241 | 9.83903 | 15682 ft | 362 kts | 29° |
| 2026-04-25 07:51 | 59.40213 | 9.86951 | 15073 ft | 360 kts | 30° |
| 2026-04-25 07:51 | 59.42162 | 9.89998 | 14455 ft | 357 kts | 30° |
| 2026-04-25 07:52 | 59.44079 | 9.93028 | 14062 ft | 348 kts | 31° |